Time,TemperatureF,DewpointF,PressureIn,WindDirection,WindDirectionDegrees,WindSpeedMPH,WindSpeedGustMPH,Humidity,HourlyPrecipIn,Conditions,Clouds,dailyrainin,SolarRadiationWatts/m^2,SoftwareType,DateUTC
2013-09-13 00:01:00,56.9,46.1,29.94,NNW,348,11.5,11.5,67,0.00,RA,,0.00,0.0,WeatherDisplay:10.37,2013-09-13 04:01:00,
2013-09-13 00:02:00,56.9,46.1,29.94,North,9,11.5,11.5,67,0.00,RA,,0.00,0.0,WeatherDisplay:10.37,2013-09-13 04:02:00,
2013-09-13 00:07:00,56.8,46.0,29.94,North,355,15.0,15.0,67,0.00,RA,,0.00,0.0,WeatherDisplay:10.37,2013-09-13 04:07:00,
2013-09-13 00:12:00,56.8,46.3,29.94,WNW,297,9.2,9.2,68,0.00,CLR,,0.00,0.0,WeatherDisplay:10.37,2013-09-13 04:12:00,
2013-09-13 00:17:00,56.8,46.0,29.95,North,355,17.3,17.3,67,0.00,CLR,,0.00,0.0,WeatherDisplay:10.37,2013-09-13 04:17:00,
2013-09-13 00:22:00,56.8,46.3,29.95,North,349,11.5,11.5,68,0.00,CLR,,0.00,0.0,WeatherDisplay:10.37,2013-09-13 04:22:00,
2013-09-13 00:27:00,56.7,45.9,29.95,North,350,12.7,12.7,67,0.00,CLR,,0.00,0.0,WeatherDisplay:10.37,2013-09-13 04:27:00,
2013-09-13 00:32:00,56.7,45.9,29.95,NNW,340,10.4,10.4,67,0.00,CLR,,0.00,0.0,WeatherDisplay:10.37,2013-09-13 04:32:00,
2013-09-13 00:37:00,56.7,46.3,29.95,NW,317,9.2,9.2,68,0.00,CLR,,0.00,0.0,WeatherDisplay:10.37,2013-09-13 04:37:00,
2013-09-13 00:42:00,56.6,46.2,29.95,NNW,341,10.4,10.4,68,0.00,CLR,,0.00,0.0,WeatherDisplay:10.37,2013-09-13 04:42:00,
2013-09-13 00:47:00,56.5,45.7,29.95,NNW,340,11.5,11.5,67,0.00,CLR,,0.00,0.0,WeatherDisplay:10.37,2013-09-13 04:47:00,
2013-09-13 00:52:00,56.4,45.6,29.95,North,5,7.0,7.0,67,0.00,CLR,,0.00,0.0,WeatherDisplay:10.37,2013-09-13 04:52:00,
2013-09-13 00:57:00,56.4,45.6,29.94,NNW,331,11.5,11.5,67,0.00,CLR,,0.00,0.0,WeatherDisplay:10.37,2013-09-13 04:57:00,
2013-09-13 01:02:00,56.3,45.5,29.95,North,11,11.5,11.5,67,0.00,CLR,,0.00,0.0,WeatherDisplay:10.37,2013-09-13 05:02:00,
2013-09-13 01:07:00,56.2,45.4,29.94,North,11,7.0,7.0,67,0.00,CLR,,0.00,0.0,WeatherDisplay:10.37,2013-09-13 05:07:00,
2013-09-13 01:12:00,56.2,45.0,29.95,NW,323,11.5,11.5,66,0.00,CLR,,0.00,0.0,WeatherDisplay:10.37,2013-09-13 05:12:00,
2013-09-13 01:17:00,56.2,45.0,29.95,NNW,344,8.1,8.1,66,0.00,CLR,,0.00,0.0,WeatherDisplay:10.37,2013-09-13 05:17:00,
2013-09-13 01:22:00,56.1,44.9,29.95,NNW,338,15.0,15.0,66,0.00,CLR,,0.00,0.0,WeatherDisplay:10.37,2013-09-13 05:22:00,
2013-09-13 01:27:00,56.0,44.8,29.95,NW,322,9.2,9.2,66,0.00,CLR,,0.00,0.0,WeatherDisplay:10.37,2013-09-13 05:27:00,
2013-09-13 01:32:00,56.0,44.8,29.95,North,5,11.5,11.5,66,0.00,CLR,,0.00,0.0,WeatherDisplay:10.37,2013-09-13 05:32:00,
2013-09-13 01:37:00,55.9,44.7,29.95,NNW,344,15.0,15.0,66,0.00,CLR,,0.00,0.0,WeatherDisplay:10.37,2013-09-13 05:37:00,
2013-09-13 01:42:00,55.9,44.7,29.95,NNW,348,11.5,11.5,66,0.00,CLR,,0.00,0.0,WeatherDisplay:10.37,2013-09-13 05:42:00,
2013-09-13 01:47:00,55.8,44.6,29.95,NNW,348,17.3,17.3,66,0.00,CLR,,0.00,0.0,WeatherDisplay:10.37,2013-09-13 05:47:00,
2013-09-13 01:52:00,55.7,44.9,29.95,NNW,333,10.4,10.4,67,0.00,CLR,,0.00,0.0,WeatherDisplay:10.37,2013-09-13 05:52:00,
2013-09-13 01:57:00,55.6,44.8,29.95,NNW,348,11.5,11.5,67,0.00,CLR,,0.00,0.0,WeatherDisplay:10.37,2013-09-13 05:57:00,
2013-09-13 02:02:00,55.5,45.1,29.95,North,355,10.4,10.4,68,0.00,CLR,,0.00,0.0,WeatherDisplay:10.37,2013-09-13 06:02:00,
2013-09-13 02:07:00,55.5,44.7,29.95,North,360,12.7,12.7,67,0.00,CLR,,0.00,0.0,WeatherDisplay:10.37,2013-09-13 06:07:00,
2013-09-13 02:12:00,55.4,44.6,29.95,NW,316,13.8,13.8,67,0.00,CLR,,0.00,0.0,WeatherDisplay:10.37,2013-09-13 06:12:00,
2013-09-13 02:17:00,55.3,44.5,29.96,NNE,17,8.1,8.1,67,0.00,CLR,,0.00,0.0,WeatherDisplay:10.37,2013-09-13 06:17:00,
2013-09-13 02:22:00,55.3,44.5,29.96,NNW,347,8.1,8.1,67,0.00,CLR,,0.00,0.0,WeatherDisplay:10.37,2013-09-13 06:22:00,
2013-09-13 02:27:00,55.2,44.4,29.96,NNW,335,16.1,16.1,67,0.00,CLR,,0.00,0.0,WeatherDisplay:10.37,2013-09-13 06:27:00,
2013-09-13 02:32:00,55.1,44.3,29.96,North,9,10.4,10.4,67,0.00,CLR,,0.00,0.0,WeatherDisplay:10.37,2013-09-13 06:32:00,
2013-09-13 02:37:00,55.0,44.2,29.96,NNW,346,9.0,9.0,67,0.00,CLR,,0.00,0.0,WeatherDisplay:10.37,2013-09-13 06:37:00,
2013-09-13 02:42:00,54.9,44.1,29.96,NNW,344,11.5,11.5,67,0.00,CLR,,0.00,0.0,WeatherDisplay:10.37,2013-09-13 06:42:00,
2013-09-13 02:47:00,54.8,44.0,29.96,North,355,15.0,15.0,67,0.00,CLR,,0.00,0.0,WeatherDisplay:10.37,2013-09-13 06:47:00,
2013-09-13 02:52:00,54.8,44.0,29.96,North,355,12.0,12.0,67,0.00,CLR,,0.00,0.0,WeatherDisplay:10.37,2013-09-13 06:52:00,
2013-09-13 02:57:00,54.7,44.3,29.96,NNW,342,10.4,10.4,68,0.00,CLR,,0.00,0.0,WeatherDisplay:10.37,2013-09-13 06:57:00,
2013-09-13 03:02:00,54.6,44.2,29.96,North,9,12.7,12.7,68,0.00,CLR,,0.00,0.0,WeatherDisplay:10.37,2013-09-13 07:02:00,
2013-09-13 03:07:00,54.5,44.2,29.96,NNW,340,10.4,10.4,68,0.00,CLR,,0.00,0.0,WeatherDisplay:10.37,2013-09-13 07:07:00,
2013-09-13 03:12:00,54.4,44.1,29.96,NW,311,11.5,11.5,68,0.00,CLR,,0.00,0.0,WeatherDisplay:10.37,2013-09-13 07:12:00,
2013-09-13 03:17:00,54.3,44.3,29.96,NNW,339,10.4,10.4,69,0.00,CLR,,0.00,0.0,WeatherDisplay:10.37,2013-09-13 07:17:00,
2013-09-13 03:22:00,54.3,44.0,29.96,North,9,11.5,11.5,68,0.00,CLR,,0.00,0.0,WeatherDisplay:10.37,2013-09-13 07:22:00,
2013-09-13 03:27:00,54.2,44.2,29.96,NNW,342,8.1,8.1,69,0.00,CLR,,0.00,0.0,WeatherDisplay:10.37,2013-09-13 07:27:00,
2013-09-13 03:41:00,54.1,44.5,29.96,NNE,13,9.2,0.0,70,0.00,CLR,,0.00,0.0,WeatherDisplay:10.37,2013-09-13 07:41:00,
2013-09-13 03:46:00,54.1,44.9,29.96,NNW,336,8.1,8.1,71,0.00,CLR,,0.00,0.0,WeatherDisplay:10.37,2013-09-13 07:46:00,
2013-09-13 03:51:00,54.0,44.4,29.96,North,360,8.1,8.1,70,0.00,CLR,,0.00,0.0,WeatherDisplay:10.37,2013-09-13 07:51:00,
2013-09-13 03:56:00,53.9,44.7,29.96,North,360,7.0,7.0,71,0.00,CLR,,0.00,0.0,WeatherDisplay:10.37,2013-09-13 07:56:00,
2013-09-13 04:01:00,53.8,44.6,29.97,North,355,11.5,11.5,71,0.00,CLR,,0.00,0.0,WeatherDisplay:10.37,2013-09-13 08:01:00,
2013-09-13 04:06:00,53.7,44.9,29.97,NNW,335,18.4,18.4,72,0.00,CLR,,0.00,0.0,WeatherDisplay:10.37,2013-09-13 08:06:00,
2013-09-13 04:11:00,53.6,44.8,29.97,North,360,12.7,12.7,72,0.00,CLR,,0.00,0.0,WeatherDisplay:10.37,2013-09-13 08:11:00,
2013-09-13 04:16:00,53.5,45.1,29.97,North,11,12.0,12.0,73,0.00,CLR,,0.00,0.0,WeatherDisplay:10.37,2013-09-13 08:16:00,
2013-09-13 04:21:00,53.4,45.0,29.97,North,360,11.5,11.5,73,0.00,CLR,,0.00,0.0,WeatherDisplay:10.37,2013-09-13 08:21:00,
2013-09-13 04:26:00,53.3,45.2,29.97,North,5,11.5,11.5,74,0.00,CLR,,0.00,0.0,WeatherDisplay:10.37,2013-09-13 08:26:00,
2013-09-13 04:31:00,53.2,45.8,29.97,NNW,345,11.5,11.5,76,0.00,CLR,,0.00,0.0,WeatherDisplay:10.37,2013-09-13 08:31:00,
2013-09-13 04:36:00,53.0,45.6,29.97,NNW,347,11.5,11.5,76,0.00,CLR,,0.00,0.0,WeatherDisplay:10.37,2013-09-13 08:36:00,
2013-09-13 04:41:00,52.9,45.9,29.97,NNW,327,13.8,13.8,77,0.00,CLR,,0.00,0.0,WeatherDisplay:10.37,2013-09-13 08:41:00,
2013-09-13 04:46:00,52.9,45.9,29.97,NNW,336,12.7,12.7,77,0.00,CLR,,0.00,0.0,WeatherDisplay:10.37,2013-09-13 08:46:00,
2013-09-13 04:51:00,52.8,45.8,29.97,North,355,13.0,13.0,77,0.00,CLR,,0.00,0.0,WeatherDisplay:10.37,2013-09-13 08:51:00,
2013-09-13 04:56:00,52.8,45.8,29.98,NNW,336,11.5,11.5,77,0.00,CLR,,0.00,0.0,WeatherDisplay:10.37,2013-09-13 08:56:00,
2013-09-13 05:01:00,52.8,46.1,29.98,North,355,10.0,10.0,78,0.00,CLR,,0.00,0.0,WeatherDisplay:10.37,2013-09-13 09:01:00,
2013-09-13 05:06:00,52.8,45.8,29.98,NNE,16,11.5,11.5,77,0.00,CLR,,0.00,0.0,WeatherDisplay:10.37,2013-09-13 09:06:00,
2013-09-13 05:11:00,52.8,46.1,29.98,North,5,13.8,13.8,78,0.00,CLR,,0.00,0.0,WeatherDisplay:10.37,2013-09-13 09:11:00,
2013-09-13 05:16:00,52.7,46.0,29.98,NNW,339,9.0,9.0,78,0.00,CLR,,0.00,0.0,WeatherDisplay:10.37,2013-09-13 09:16:00,
2013-09-13 05:21:00,52.7,46.4,29.98,North,5,8.1,8.1,79,0.00,CLR,,0.00,0.0,WeatherDisplay:10.37,2013-09-13 09:21:00,
2013-09-13 05:26:00,52.7,46.0,29.98,NNW,347,11.5,11.5,78,0.00,CLR,,0.00,0.0,WeatherDisplay:10.37,2013-09-13 09:26:00,
2013-09-13 05:31:00,52.7,46.4,29.99,NNE,14,11.5,11.5,79,0.00,CLR,,0.00,0.0,WeatherDisplay:10.37,2013-09-13 09:31:00,
2013-09-13 05:36:00,52.6,46.3,29.98,North,5,11.5,11.5,79,0.00,CLR,,0.00,0.0,WeatherDisplay:10.37,2013-09-13 09:36:00,
2013-09-13 05:41:00,52.6,46.3,29.98,North,355,8.0,8.0,79,0.00,CLR,,0.00,0.0,WeatherDisplay:10.37,2013-09-13 09:41:00,
2013-09-13 05:46:00,52.5,46.5,29.98,North,350,8.1,8.1,80,0.00,CLR,,0.00,0.0,WeatherDisplay:10.37,2013-09-13 09:46:00,
2013-09-13 05:51:00,52.3,46.3,29.98,NW,325,11.5,11.5,80,0.00,CLR,,0.00,0.0,WeatherDisplay:10.37,2013-09-13 09:51:00,
2013-09-13 05:56:00,52.1,46.4,29.99,NNW,341,8.1,8.1,81,0.00,CLR,,0.00,0.0,WeatherDisplay:10.37,2013-09-13 09:56:00,
2013-09-13 06:01:00,51.9,46.6,29.99,North,5,9.2,9.2,82,0.00,CLR,,0.00,0.0,WeatherDisplay:10.37,2013-09-13 10:01:00,
2013-09-13 06:06:00,51.7,46.4,29.99,NW,315,6.9,6.9,82,0.00,CLR,,0.00,0.0,WeatherDisplay:10.37,2013-09-13 10:06:00,
2013-09-13 06:11:00,51.6,46.3,29.99,NNW,329,8.1,8.1,82,0.00,CLR,,0.00,0.0,WeatherDisplay:10.37,2013-09-13 10:11:00,
2013-09-13 06:16:00,51.6,46.6,29.99,NNW,339,10.4,10.4,83,0.00,CLR,,0.00,0.0,WeatherDisplay:10.37,2013-09-13 10:16:00,
2013-09-13 06:21:00,51.7,46.7,29.99,North,360,4.6,4.6,83,0.00,CLR,,0.00,0.0,WeatherDisplay:10.37,2013-09-13 10:21:00,
2013-09-13 06:26:00,51.7,46.7,29.99,NNE,21,8.1,8.1,83,0.00,CLR,,0.00,0.0,WeatherDisplay:10.37,2013-09-13 10:26:00,
2013-09-13 06:31:00,51.8,46.8,29.99,NNW,348,10.4,10.4,83,0.00,CLR,,0.00,0.0,WeatherDisplay:10.37,2013-09-13 10:31:00,
2013-09-13 06:36:00,51.9,46.6,29.99,NNW,328,10.4,10.4,82,0.00,CLR,,0.00,0.0,WeatherDisplay:10.37,2013-09-13 10:36:00,
2013-09-13 06:41:00,52.0,46.7,29.99,NNW,340,9.2,9.2,82,0.00,CLR,,0.00,0.0,WeatherDisplay:10.37,2013-09-13 10:41:00,
2013-09-13 06:46:00,51.9,46.9,29.99,NNW,346,11.5,11.5,83,0.00,CLR,,0.00,0.0,WeatherDisplay:10.37,2013-09-13 10:46:00,
2013-09-13 06:51:00,52.0,47.0,29.99,NNW,327,9.2,9.2,83,0.00,CLR,,0.00,0.0,WeatherDisplay:10.37,2013-09-13 10:51:00,
2013-09-13 06:56:00,51.9,46.6,29.99,NNW,340,8.1,8.1,82,0.00,CLR,,0.00,0.0,WeatherDisplay:10.37,2013-09-13 10:56:00,
2013-09-13 07:01:00,51.9,46.6,29.99,North,5,10.4,10.4,82,0.00,CLR,,0.00,0.0,WeatherDisplay:10.37,2013-09-13 11:01:00,
2013-09-13 07:06:00,51.8,46.8,30.00,North,9,8.1,8.1,83,0.00,CLR,,0.00,0.0,WeatherDisplay:10.37,2013-09-13 11:06:00,
2013-09-13 07:11:00,51.8,46.5,30.00,North,5,9.2,9.2,82,0.00,CLR,,0.00,0.0,WeatherDisplay:10.37,2013-09-13 11:11:00,
2013-09-13 07:16:00,51.8,46.5,30.00,North,355,8.1,8.1,82,0.00,CLR,,0.00,0.0,WeatherDisplay:10.37,2013-09-13 11:16:00,
2013-09-13 07:21:00,51.8,46.5,30.00,NW,321,7.0,7.0,82,0.00,CLR,,0.00,0.0,WeatherDisplay:10.37,2013-09-13 11:21:00,
2013-09-13 07:26:00,51.8,46.8,30.01,NNW,347,8.1,8.1,83,0.00,CLR,,0.00,5.0,WeatherDisplay:10.37,2013-09-13 11:26:00,
2013-09-13 07:31:00,51.9,46.6,30.01,North,355,11.5,11.5,82,0.00,CLR,,0.00,11.0,WeatherDisplay:10.37,2013-09-13 11:31:00,
2013-09-13 07:36:00,51.9,46.6,30.01,NNW,347,8.1,8.1,82,0.00,CLR,,0.00,16.0,WeatherDisplay:10.37,2013-09-13 11:36:00,
2013-09-13 07:41:00,51.9,46.6,30.01,North,355,8.1,8.1,82,0.00,CLR,,0.00,18.0,WeatherDisplay:10.37,2013-09-13 11:41:00,
2013-09-13 07:46:00,51.9,46.9,30.01,NNW,343,11.5,11.5,83,0.00,CLR,,0.00,21.0,WeatherDisplay:10.37,2013-09-13 11:46:00,
2013-09-13 07:51:00,51.9,46.9,30.01,NNW,336,6.9,6.9,83,0.00,CLR,,0.00,28.0,WeatherDisplay:10.37,2013-09-13 11:51:00,
2013-09-13 07:56:00,52.0,46.7,30.01,North,5,12.7,12.7,82,0.00,CLR,,0.00,30.0,WeatherDisplay:10.37,2013-09-13 11:56:00,
2013-09-13 08:01:00,52.0,46.7,30.01,North,355,11.5,11.5,82,0.00,CLR,,0.00,33.0,WeatherDisplay:10.37,2013-09-13 12:01:00,
2013-09-13 08:06:00,52.1,46.8,30.01,North,5,12.7,12.7,82,0.00,CLR,,0.00,39.0,WeatherDisplay:10.37,2013-09-13 12:06:00,
2013-09-13 08:11:00,52.1,46.8,30.02,North,360,8.1,8.1,82,0.00,CLR,,0.00,37.0,WeatherDisplay:10.37,2013-09-13 12:11:00,
2013-09-13 08:16:00,52.2,46.9,30.02,North,5,11.5,11.5,82,0.00,CLR,,0.00,42.0,WeatherDisplay:10.37,2013-09-13 12:16:00,
2013-09-13 08:21:00,52.1,46.8,30.02,North,5,15.0,15.0,82,0.00,CLR,,0.00,49.0,WeatherDisplay:10.37,2013-09-13 12:21:00,
2013-09-13 08:26:00,52.2,46.9,30.02,NNW,328,11.5,11.5,82,0.00,CLR,,0.00,60.0,WeatherDisplay:10.37,2013-09-13 12:26:00,
2013-09-13 08:31:00,52.2,46.9,30.03,North,360,11.5,11.5,82,0.00,CLR,,0.00,62.0,WeatherDisplay:10.37,2013-09-13 12:31:00,
2013-09-13 08:36:00,52.2,46.9,30.03,NNW,338,6.9,6.9,82,0.00,CLR,,0.00,72.0,WeatherDisplay:10.37,2013-09-13 12:36:00,
2013-09-13 08:41:00,52.3,46.6,30.03,North,5,9.2,9.2,81,0.00,CLR,,0.00,77.0,WeatherDisplay:10.37,2013-09-13 12:41:00,
2013-09-13 08:46:00,52.3,46.6,30.03,North,355,15.0,15.0,81,0.00,CLR,,0.00,76.0,WeatherDisplay:10.37,2013-09-13 12:46:00,
2013-09-13 08:51:00,52.2,46.5,30.03,NW,311,11.5,11.5,81,0.00,CLR,,0.00,81.0,WeatherDisplay:10.37,2013-09-13 12:51:00,
2013-09-13 08:56:00,52.2,46.5,30.03,NNE,15,9.2,9.2,81,0.00,CLR,,0.00,84.0,WeatherDisplay:10.37,2013-09-13 12:56:00,
2013-09-13 09:01:00,52.2,46.5,30.03,NNE,13,9.2,9.2,81,0.00,OVC,,0.00,60.0,WeatherDisplay:10.37,2013-09-13 13:01:00,
2013-09-13 09:06:00,52.1,46.4,30.03,NW,320,12.7,12.7,81,0.00,OVC,,0.00,65.0,WeatherDisplay:10.37,2013-09-13 13:06:00,
2013-09-13 09:11:00,51.9,46.6,30.03,North,355,10.4,10.4,82,0.00,OVC,,0.00,113.0,WeatherDisplay:10.37,2013-09-13 13:11:00,
2013-09-13 09:16:00,51.9,46.6,30.04,ENE,64,11.5,11.5,82,0.00,OVC,,0.00,121.0,WeatherDisplay:10.37,2013-09-13 13:16:00,
2013-09-13 09:21:00,51.9,46.6,30.04,North,5,11.5,11.5,82,0.00,OVC,,0.00,109.0,WeatherDisplay:10.37,2013-09-13 13:21:00,
2013-09-13 09:26:00,51.8,46.5,30.04,NNW,333,13.8,13.8,82,0.00,OVC,,0.00,81.0,WeatherDisplay:10.37,2013-09-13 13:26:00,
2013-09-13 09:31:00,51.6,46.3,30.04,North,355,11.5,11.5,82,0.00,OVC,,0.00,77.0,WeatherDisplay:10.37,2013-09-13 13:31:00,
2013-09-13 09:36:00,51.4,46.7,30.04,North,9,11.5,11.5,84,0.00,OVC,,0.00,105.0,WeatherDisplay:10.37,2013-09-13 13:36:00,
2013-09-13 09:41:00,51.4,46.7,30.04,North,360,16.0,16.0,84,0.00,OVC,,0.00,120.0,WeatherDisplay:10.37,2013-09-13 13:41:00,
2013-09-13 09:46:00,51.3,46.6,30.04,North,5,10.4,10.4,84,0.00,OVC,,0.00,116.0,WeatherDisplay:10.37,2013-09-13 13:46:00,
2013-09-13 09:51:00,51.3,46.3,30.04,North,360,11.5,11.5,83,0.00,OVC,,0.00,120.0,WeatherDisplay:10.37,2013-09-13 13:51:00,
2013-09-13 09:56:00,51.3,46.6,30.05,North,349,12.0,12.0,84,0.00,OVC,,0.00,113.0,WeatherDisplay:10.37,2013-09-13 13:56:00,
2013-09-13 10:01:00,51.5,46.8,30.05,North,9,8.1,8.1,84,0.00,OVC,,0.00,114.0,WeatherDisplay:10.37,2013-09-13 14:01:00,
2013-09-13 10:06:00,51.5,46.2,30.05,North,5,12.7,12.7,82,0.00,OVC,,0.00,127.0,WeatherDisplay:10.37,2013-09-13 14:06:00,
2013-09-13 10:11:00,51.4,46.4,30.05,NW,325,11.5,11.5,83,0.00,OVC,,0.00,121.0,WeatherDisplay:10.37,2013-09-13 14:11:00,
2013-09-13 10:16:00,51.4,46.4,30.05,North,5,8.1,8.1,83,0.00,OVC,,0.00,151.0,WeatherDisplay:10.37,2013-09-13 14:16:00,
2013-09-13 10:21:00,51.4,46.4,30.06,NNW,347,6.9,6.9,83,0.00,OVC,,0.00,148.0,WeatherDisplay:10.37,2013-09-13 14:21:00,
2013-09-13 10:26:00,51.6,46.6,30.06,NNW,347,11.5,11.5,83,0.00,OVC,,0.00,172.0,WeatherDisplay:10.37,2013-09-13 14:26:00,
2013-09-13 10:31:00,51.8,46.5,30.06,North,355,11.0,11.0,82,0.00,OVC,,0.00,148.0,WeatherDisplay:10.37,2013-09-13 14:31:00,
2013-09-13 10:36:00,51.9,46.6,30.06,North,5,13.8,13.8,82,0.00,OVC,,0.00,146.0,WeatherDisplay:10.37,2013-09-13 14:36:00,
2013-09-13 10:41:00,51.9,46.3,30.06,North,355,13.0,13.0,81,0.00,OVC,,0.00,105.0,WeatherDisplay:10.37,2013-09-13 14:41:00,
2013-09-13 10:46:00,51.9,46.6,30.06,North,355,10.4,10.4,82,0.00,OVC,,0.00,144.0,WeatherDisplay:10.37,2013-09-13 14:46:00,
2013-09-13 10:51:00,52.1,46.8,30.07,North,355,12.0,12.0,82,0.00,OVC,,0.00,206.0,WeatherDisplay:10.37,2013-09-13 14:51:00,
2013-09-13 10:56:00,52.2,46.5,30.07,North,355,11.5,11.5,81,0.00,OVC,,0.00,285.0,WeatherDisplay:10.37,2013-09-13 14:56:00,
2013-09-13 11:01:00,52.4,46.7,30.07,NW,323,13.8,13.8,81,0.00,OVC,,0.00,309.0,WeatherDisplay:10.37,2013-09-13 15:01:00,
2013-09-13 11:06:00,52.8,46.8,30.07,NNE,13,13.8,13.8,80,0.00,OVC,,0.00,327.0,WeatherDisplay:10.37,2013-09-13 15:06:00,
2013-09-13 11:11:00,53.3,47.0,30.07,NNW,346,15.0,15.0,79,0.00,OVC,,0.00,439.0,WeatherDisplay:10.37,2013-09-13 15:11:00,
2013-09-13 11:16:00,53.4,46.7,30.07,North,5,12.7,12.7,78,0.00,OVC,,0.00,193.0,WeatherDisplay:10.37,2013-09-13 15:16:00,
2013-09-13 11:21:00,52.9,46.6,30.08,NNE,16,11.5,11.5,79,0.00,OVC,,0.00,163.0,WeatherDisplay:10.37,2013-09-13 15:21:00,
2013-09-13 11:26:00,52.6,46.9,30.08,North,5,9.2,9.2,81,0.00,OVC,,0.00,269.0,WeatherDisplay:10.37,2013-09-13 15:26:00,
2013-09-13 11:31:00,53.0,47.0,30.08,North,351,9.2,9.2,80,0.00,OVC,,0.00,378.0,WeatherDisplay:10.37,2013-09-13 15:31:00,
2013-09-13 11:36:00,53.5,46.8,30.07,NNE,12,16.1,16.1,78,0.00,OVC,,0.00,378.0,WeatherDisplay:10.37,2013-09-13 15:36:00,
2013-09-13 11:41:00,54.0,47.0,30.08,NNW,347,12.7,12.7,77,0.00,OVC,,0.00,308.0,WeatherDisplay:10.37,2013-09-13 15:41:00,
2013-09-13 11:46:00,54.1,46.7,30.07,North,5,12.7,12.7,76,0.00,OVC,,0.00,309.0,WeatherDisplay:10.37,2013-09-13 15:46:00,
2013-09-13 11:51:00,54.2,46.8,30.07,North,355,12.7,12.7,76,0.00,OVC,,0.00,297.0,WeatherDisplay:10.37,2013-09-13 15:51:00,
2013-09-13 11:56:00,54.1,46.3,30.08,North,5,12.7,12.7,75,0.00,OVC,,0.00,204.0,WeatherDisplay:10.37,2013-09-13 15:56:00,
2013-09-13 12:01:00,54.0,46.3,30.08,North,355,12.0,12.0,75,0.00,OVC,,0.00,294.0,WeatherDisplay:10.37,2013-09-13 16:01:00,
2013-09-13 12:07:00,54.4,46.6,30.08,North,360,11.0,11.0,75,0.00,OVC,,0.00,422.0,WeatherDisplay:10.37,2013-09-13 16:07:00,
2013-09-13 12:12:00,54.8,47.0,30.08,NNW,346,12.0,12.0,75,0.00,OVC,,0.00,304.0,WeatherDisplay:10.37,2013-09-13 16:12:00,
2013-09-13 12:17:00,54.8,46.3,30.08,North,351,11.5,11.5,73,0.00,CLR,,0.00,202.0,WeatherDisplay:10.37,2013-09-13 16:17:00,
2013-09-13 12:22:00,54.5,46.0,30.08,NNE,17,9.2,9.2,73,0.00,CLR,,0.00,236.0,WeatherDisplay:10.37,2013-09-13 16:22:00,
2013-09-13 12:27:00,54.4,45.9,30.08,North,5,11.0,11.0,73,0.00,CLR,,0.00,334.0,WeatherDisplay:10.37,2013-09-13 16:27:00,
2013-09-13 12:32:00,54.5,46.7,30.08,North,11,10.4,10.4,75,0.00,CLR,,0.00,214.0,WeatherDisplay:10.37,2013-09-13 16:32:00,
2013-09-13 12:37:00,54.6,46.5,30.08,NE,35,10.0,10.0,74,0.00,CLR,,0.00,230.0,WeatherDisplay:10.37,2013-09-13 16:37:00,
2013-09-13 12:42:00,54.0,46.3,30.08,NNE,24,12.7,12.7,75,0.00,CLR,,0.00,160.0,WeatherDisplay:10.37,2013-09-13 16:42:00,
2013-09-13 12:47:00,53.8,46.1,30.08,NNW,343,16.1,16.1,75,0.00,CLR,,0.00,299.0,WeatherDisplay:10.37,2013-09-13 16:47:00,
2013-09-13 12:52:00,53.7,46.3,30.08,North,360,17.0,17.0,76,0.00,CLR,,0.00,383.0,WeatherDisplay:10.37,2013-09-13 16:52:00,
2013-09-13 12:57:00,53.8,46.1,30.08,NNE,24,15.0,15.0,75,0.00,CLR,,0.00,431.0,WeatherDisplay:10.37,2013-09-13 16:57:00,
2013-09-13 13:02:00,54.0,45.9,30.09,NNE,28,18.4,18.4,74,0.00,CLR,,0.00,443.0,WeatherDisplay:10.37,2013-09-13 17:02:00,
2013-09-13 13:07:00,53.9,45.8,30.09,North,5,12.7,12.7,74,0.00,CLR,,0.00,418.0,WeatherDisplay:10.37,2013-09-13 17:07:00,
2013-09-13 13:12:00,54.1,46.3,30.09,North,355,17.3,17.3,75,0.00,CLR,,0.00,406.0,WeatherDisplay:10.37,2013-09-13 17:12:00,
2013-09-13 13:17:00,54.1,46.0,30.09,NE,48,12.7,12.7,74,0.00,CLR,,0.00,357.0,WeatherDisplay:10.37,2013-09-13 17:17:00,
2013-09-13 13:22:00,54.3,45.8,30.09,North,5,15.0,15.0,73,0.00,CLR,,0.00,345.0,WeatherDisplay:10.37,2013-09-13 17:22:00,
2013-09-13 13:27:00,54.4,46.6,30.09,NNE,17,14.0,14.0,75,0.00,CLR,,0.00,279.0,WeatherDisplay:10.37,2013-09-13 17:27:00,
2013-09-13 13:32:00,54.3,45.8,30.09,North,355,11.5,11.5,73,0.00,CLR,,0.00,257.0,WeatherDisplay:10.37,2013-09-13 17:32:00,
2013-09-13 13:37:00,54.2,46.1,30.09,North,5,9.2,9.2,74,0.00,CLR,,0.00,267.0,WeatherDisplay:10.37,2013-09-13 17:37:00,
2013-09-13 13:42:00,54.2,45.7,30.09,North,360,13.8,13.8,73,0.00,CLR,,0.00,288.0,WeatherDisplay:10.37,2013-09-13 17:42:00,
2013-09-13 13:47:00,54.2,45.7,30.09,North,5,12.7,12.7,73,0.00,CLR,,0.00,290.0,WeatherDisplay:10.37,2013-09-13 17:47:00,
2013-09-13 13:52:00,54.4,46.6,30.09,North,5,9.2,9.2,75,0.00,FEW,,0.00,206.0,WeatherDisplay:10.37,2013-09-13 17:52:00,
2013-09-13 13:57:00,54.2,45.4,30.09,North,360,9.2,9.2,72,0.00,SCT,,0.00,153.0,WeatherDisplay:10.37,2013-09-13 17:57:00,
2013-09-13 14:02:00,53.9,45.1,30.09,NE,40,11.5,11.5,72,0.00,SCT,,0.00,195.0,WeatherDisplay:10.37,2013-09-13 18:02:00,
2013-09-13 14:07:00,53.9,45.8,30.09,North,11,8.1,8.1,74,0.00,CLR,,0.00,304.0,WeatherDisplay:10.37,2013-09-13 18:07:00,
2013-09-13 14:12:00,54.2,45.7,30.09,NNW,348,7.0,7.0,73,0.00,FEW,,0.00,207.0,WeatherDisplay:10.37,2013-09-13 18:12:00,
2013-09-13 14:17:00,54.0,45.2,30.09,North,360,13.8,13.8,72,0.00,SCT,,0.00,202.0,WeatherDisplay:10.37,2013-09-13 18:17:00,
2013-09-13 14:22:00,53.8,45.7,30.09,North,5,6.9,6.9,74,0.00,CLR,,0.00,327.0,WeatherDisplay:10.37,2013-09-13 18:22:00,
2013-09-13 14:27:00,54.1,46.0,30.09,NNE,20,9.2,9.2,74,0.00,CLR,,0.00,348.0,WeatherDisplay:10.37,2013-09-13 18:27:00,
2013-09-13 14:32:00,54.2,45.0,30.09,North,11,15.0,15.0,71,0.00,CLR,,0.00,357.0,WeatherDisplay:10.37,2013-09-13 18:32:00,
2013-09-13 14:37:00,54.6,45.4,30.09,NNE,12,13.0,13.0,71,0.00,CLR,,0.00,526.0,WeatherDisplay:10.37,2013-09-13 18:37:00,
2013-09-13 14:42:00,54.8,45.6,30.09,North,9,13.8,13.8,71,0.00,CLR,,0.00,378.0,WeatherDisplay:10.37,2013-09-13 18:42:00,
2013-09-13 14:47:00,54.9,45.3,30.09,NNW,346,12.7,12.7,70,0.00,CLR,,0.00,403.0,WeatherDisplay:10.37,2013-09-13 18:47:00,
2013-09-13 14:52:00,55.1,45.9,30.09,NNE,13,11.0,11.0,71,0.00,CLR,,0.00,403.0,WeatherDisplay:10.37,2013-09-13 18:52:00,
2013-09-13 14:57:00,55.0,45.4,30.09,North,360,18.4,18.4,70,0.00,FEW,,0.00,367.0,WeatherDisplay:10.37,2013-09-13 18:57:00,
2013-09-13 15:02:00,54.7,44.7,30.09,NNE,18,12.7,12.7,69,0.00,SCT,,0.00,309.0,WeatherDisplay:10.37,2013-09-13 19:02:00,
2013-09-13 15:07:00,54.4,44.8,30.09,North,11,13.8,13.8,70,0.00,SCT,,0.00,348.0,WeatherDisplay:10.37,2013-09-13 19:07:00,
2013-09-13 15:12:00,54.4,44.4,30.09,NNW,336,13.8,13.8,69,0.00,FEW,,0.00,360.0,WeatherDisplay:10.37,2013-09-13 19:12:00,
2013-09-13 15:17:00,54.6,44.6,30.09,North,9,18.4,18.4,69,0.00,SCT,,0.00,373.0,WeatherDisplay:10.37,2013-09-13 19:17:00,
2013-09-13 15:22:00,54.8,45.2,30.09,NE,40,10.4,10.4,70,0.00,FEW,,0.00,578.0,WeatherDisplay:10.37,2013-09-13 19:22:00,
2013-09-13 15:27:00,54.9,44.9,30.09,North,360,12.7,12.7,69,0.00,SCT,,0.00,359.0,WeatherDisplay:10.37,2013-09-13 19:27:00,
2013-09-13 15:32:00,55.1,44.3,30.09,NNW,332,11.5,11.5,67,0.00,SCT,,0.00,318.0,WeatherDisplay:10.37,2013-09-13 19:32:00,
2013-09-13 15:37:00,55.9,46.3,30.09,NNE,28,7.0,7.0,70,0.00,CLR,,0.00,1058.0,WeatherDisplay:10.37,2013-09-13 19:37:00,
2013-09-13 15:42:00,56.9,45.3,30.09,North,5,11.5,11.5,65,0.00,CLR,,0.00,1051.0,WeatherDisplay:10.37,2013-09-13 19:42:00,
2013-09-13 15:47:00,57.1,45.8,30.09,NE,36,11.5,11.5,66,0.00,CLR,,0.00,856.0,WeatherDisplay:10.37,2013-09-13 19:47:00,
2013-09-13 15:52:00,56.5,44.5,30.08,North,360,8.1,8.1,64,0.00,BKN,,0.00,214.0,WeatherDisplay:10.37,2013-09-13 19:52:00,
2013-09-13 15:57:00,56.0,44.8,30.09,North,5,13.8,13.8,66,0.00,CLR,,0.00,830.0,WeatherDisplay:10.37,2013-09-13 19:57:00,
2013-09-13 16:02:00,56.3,44.3,30.08,NNE,28,13.8,13.8,64,0.00,BKN,,0.00,183.0,WeatherDisplay:10.37,2013-09-13 20:02:00,
2013-09-13 16:07:00,56.0,44.0,30.08,NNW,344,11.5,11.5,64,0.00,CLR,,0.00,721.0,WeatherDisplay:10.37,2013-09-13 20:07:00,
2013-09-13 16:12:00,56.6,45.4,30.08,North,11,9.2,9.2,66,0.00,CLR,,0.00,810.0,WeatherDisplay:10.37,2013-09-13 20:12:00,
2013-09-13 16:17:00,56.6,43.3,30.08,NNW,348,10.4,10.4,61,0.00,CLR,,0.00,821.0,WeatherDisplay:10.37,2013-09-13 20:17:00,
2013-09-13 16:22:00,56.3,43.4,30.09,North,11,15.0,15.0,62,0.00,BKN,,0.00,137.0,WeatherDisplay:10.37,2013-09-13 20:22:00,
2013-09-13 16:27:00,55.6,42.8,30.09,North,355,11.5,11.5,62,0.00,BKN,,0.00,100.0,WeatherDisplay:10.37,2013-09-13 20:27:00,
2013-09-13 16:32:00,55.5,43.5,30.09,NNE,24,11.5,11.5,64,0.00,CLR,,0.00,643.0,WeatherDisplay:10.37,2013-09-13 20:32:00,
2013-09-13 16:37:00,56.1,44.1,30.08,North,5,12.7,12.7,64,0.00,CLR,,0.00,629.0,WeatherDisplay:10.37,2013-09-13 20:37:00,
2013-09-13 16:42:00,56.8,42.6,30.08,North,360,12.7,12.7,59,0.00,CLR,,0.00,680.0,WeatherDisplay:10.37,2013-09-13 20:42:00,
2013-09-13 16:47:00,57.3,43.1,30.09,NNW,338,15.0,15.0,59,0.00,CLR,,0.00,766.0,WeatherDisplay:10.37,2013-09-13 20:47:00,
2013-09-13 16:52:00,57.3,42.2,30.08,North,360,13.8,13.8,57,0.00,CLR,,0.00,795.0,WeatherDisplay:10.37,2013-09-13 20:52:00,
2013-09-13 16:57:00,57.4,41.8,30.08,NNE,24,11.5,11.5,56,0.00,CLR,,0.00,649.0,WeatherDisplay:10.37,2013-09-13 20:57:00,
2013-09-13 17:02:00,57.6,42.0,30.08,NNE,32,11.5,11.5,56,0.00,FEW,,0.00,621.0,WeatherDisplay:10.37,2013-09-13 21:02:00,
2013-09-13 17:07:00,56.8,40.3,30.09,NNE,24,11.5,11.5,54,0.00,SCT,,0.00,538.0,WeatherDisplay:10.37,2013-09-13 21:07:00,
2013-09-13 17:12:00,57.0,41.0,30.09,North,355,11.0,11.0,55,0.00,SCT,,0.00,533.0,WeatherDisplay:10.37,2013-09-13 21:12:00,
2013-09-13 17:17:00,57.1,40.6,30.08,NE,48,6.9,6.9,54,0.00,SCT,,0.00,443.0,WeatherDisplay:10.37,2013-09-13 21:17:00,
2013-09-13 17:22:00,57.4,40.9,30.09,NE,36,11.5,11.5,54,0.00,SCT,,0.00,497.0,WeatherDisplay:10.37,2013-09-13 21:22:00,
2013-09-13 17:27:00,57.4,40.9,30.09,NNW,333,10.0,10.0,54,0.00,SCT,,0.00,464.0,WeatherDisplay:10.37,2013-09-13 21:27:00,
2013-09-13 17:32:00,57.3,40.3,30.09,North,5,15.0,15.0,53,0.00,SCT,,0.00,445.0,WeatherDisplay:10.37,2013-09-13 21:32:00,
2013-09-13 17:37:00,57.1,41.5,30.09,NNW,336,11.5,11.5,56,0.00,SCT,,0.00,431.0,WeatherDisplay:10.37,2013-09-13 21:37:00,
2013-09-13 17:42:00,57.2,41.2,30.08,North,5,11.5,11.5,55,0.00,SCT,,0.00,420.0,WeatherDisplay:10.37,2013-09-13 21:42:00,
2013-09-13 17:47:00,57.3,40.8,30.08,NNE,20,11.5,11.5,54,0.00,BKN,,0.00,401.0,WeatherDisplay:10.37,2013-09-13 21:47:00,
2013-09-13 17:54:00,57.2,40.2,30.09,North,360,16.1,16.1,53,0.00,BKN,,0.00,378.0,WeatherDisplay:10.37,2013-09-13 21:54:00,
2013-09-13 17:59:00,56.9,40.4,30.08,North,5,15.0,15.0,54,0.00,BKN,,0.00,360.0,WeatherDisplay:10.37,2013-09-13 21:59:00,
2013-09-13 18:04:00,56.8,40.3,30.09,NNE,23,12.7,12.7,54,0.00,BKN,,0.00,343.0,WeatherDisplay:10.37,2013-09-13 22:04:00,
2013-09-13 18:09:00,56.8,40.3,30.09,North,355,11.5,11.5,54,0.00,BKN,,0.00,155.0,WeatherDisplay:10.37,2013-09-13 22:09:00,
2013-09-13 18:14:00,56.8,39.8,30.09,NNE,22,8.1,8.1,53,0.00,BKN,,0.00,227.0,WeatherDisplay:10.37,2013-09-13 22:14:00,
2013-09-13 18:19:00,56.7,39.7,30.09,North,350,13.8,13.8,53,0.00,BKN,,0.00,51.0,WeatherDisplay:10.37,2013-09-13 22:19:00,
2013-09-13 18:24:00,56.4,39.0,30.09,NNE,27,11.5,11.5,52,0.00,CLR,,0.00,40.0,WeatherDisplay:10.37,2013-09-13 22:24:00,
2013-09-13 18:29:00,56.3,39.9,30.09,NNE,12,8.1,8.1,54,0.00,CLR,,0.00,35.0,WeatherDisplay:10.37,2013-09-13 22:29:00,
2013-09-13 18:34:00,56.2,37.8,30.09,NNE,15,16.1,16.1,50,0.00,CLR,,0.00,44.0,WeatherDisplay:10.37,2013-09-13 22:34:00,
2013-09-13 18:39:00,56.0,38.6,30.09,NE,35,8.1,8.1,52,0.00,CLR,,0.00,28.0,WeatherDisplay:10.37,2013-09-13 22:39:00,
2013-09-13 18:44:00,55.8,38.9,30.09,North,5,10.4,10.4,53,0.00,CLR,,0.00,33.0,WeatherDisplay:10.37,2013-09-13 22:44:00,
2013-09-13 18:49:00,55.7,39.8,30.09,NNE,30,5.8,5.8,55,0.00,CLR,,0.00,26.0,WeatherDisplay:10.37,2013-09-13 22:49:00,
2013-09-13 18:54:00,55.6,39.7,30.09,NE,45,6.9,6.9,55,0.00,CLR,,0.00,23.0,WeatherDisplay:10.37,2013-09-13 22:54:00,
2013-09-13 18:59:00,55.4,39.0,30.09,NNE,19,5.8,5.8,54,0.00,CLR,,0.00,21.0,WeatherDisplay:10.37,2013-09-13 22:59:00,
2013-09-13 19:04:00,55.3,39.4,30.09,NNE,30,3.5,3.5,55,0.00,CLR,,0.00,21.0,WeatherDisplay:10.37,2013-09-13 23:04:00,
2013-09-13 19:09:00,55.1,39.7,30.09,NNE,30,4.0,4.0,56,0.00,CLR,,0.00,19.0,WeatherDisplay:10.37,2013-09-13 23:09:00,
2013-09-13 19:14:00,54.8,39.8,30.09,North,5,5.8,5.8,57,0.00,CLR,,0.00,18.0,WeatherDisplay:10.37,2013-09-13 23:14:00,
2013-09-13 19:19:00,54.6,40.1,30.09,NNE,22,3.5,3.5,58,0.00,CLR,,0.00,14.0,WeatherDisplay:10.37,2013-09-13 23:19:00,
2013-09-13 19:24:00,54.3,39.8,30.09,North,5,6.9,6.9,58,0.00,CLR,,0.00,14.0,WeatherDisplay:10.37,2013-09-13 23:24:00,
2013-09-13 19:29:00,54.1,40.5,30.09,NNE,24,4.0,4.0,60,0.00,CLR,,0.00,12.0,WeatherDisplay:10.37,2013-09-13 23:29:00,
2013-09-13 19:34:00,53.9,40.8,30.09,NNE,23,2.3,2.3,61,0.00,CLR,,0.00,11.0,WeatherDisplay:10.37,2013-09-13 23:34:00,
2013-09-13 19:39:00,53.6,40.9,30.10,NNE,23,2.3,2.3,62,0.00,CLR,,0.00,7.0,WeatherDisplay:10.37,2013-09-13 23:39:00,
2013-09-13 19:44:00,53.3,41.4,30.09,NNE,23,1.0,0.0,64,0.00,CLR,,0.00,5.0,WeatherDisplay:10.37,2013-09-13 23:44:00,
2013-09-13 19:49:00,52.8,41.0,30.10,NNE,23,3.5,3.5,64,0.00,CLR,,0.00,0.0,WeatherDisplay:10.37,2013-09-13 23:49:00,
2013-09-13 19:54:00,52.4,41.0,30.10,NNE,23,3.5,3.5,65,0.00,CLR,,0.00,0.0,WeatherDisplay:10.37,2013-09-13 23:54:00,
2013-09-13 19:59:00,52.1,41.5,30.10,NNE,23,0.0,0.0,67,0.00,CLR,,0.00,0.0,WeatherDisplay:10.37,2013-09-13 23:59:00,
2013-09-13 20:04:00,51.7,42.2,30.10,NNE,23,0.0,0.0,70,0.00,CLR,,0.00,0.0,WeatherDisplay:10.37,2013-09-14 00:04:00,
2013-09-13 20:09:00,51.3,42.2,30.10,NNE,23,0.0,0.0,71,0.00,CLR,,0.00,0.0,WeatherDisplay:10.37,2013-09-14 00:09:00,
2013-09-13 20:14:00,50.7,42.0,30.11,NNE,23,0.0,0.0,72,0.00,CLR,,0.00,0.0,WeatherDisplay:10.37,2013-09-14 00:14:00,
2013-09-13 20:19:00,50.2,42.6,30.11,NNE,23,0.0,0.0,75,0.00,CLR,,0.00,0.0,WeatherDisplay:10.37,2013-09-14 00:19:00,
2013-09-13 20:24:00,49.6,42.3,30.11,NNE,23,0.0,0.0,76,0.00,CLR,,0.00,0.0,WeatherDisplay:10.37,2013-09-14 00:24:00,
2013-09-13 20:29:00,49.1,42.5,30.11,NNE,23,0.0,0.0,78,0.00,CLR,,0.00,0.0,WeatherDisplay:10.37,2013-09-14 00:29:00,
2013-09-13 20:34:00,48.6,42.7,30.11,NNE,23,0.0,0.0,80,0.00,CLR,,0.00,0.0,WeatherDisplay:10.37,2013-09-14 00:34:00,
2013-09-13 20:39:00,48.1,42.5,30.11,NNE,23,0.0,0.0,81,0.00,CLR,,0.00,0.0,WeatherDisplay:10.37,2013-09-14 00:39:00,
2013-09-13 20:44:00,47.6,42.4,30.11,NNE,23,0.0,0.0,82,0.00,CLR,,0.00,0.0,WeatherDisplay:10.37,2013-09-14 00:44:00,
2013-09-13 20:49:00,47.2,42.3,30.12,NNE,23,0.0,0.0,83,0.00,CLR,,0.00,0.0,WeatherDisplay:10.37,2013-09-14 00:49:00,
2013-09-13 20:54:00,46.9,42.3,30.12,NNE,23,0.0,0.0,84,0.00,CLR,,0.00,0.0,WeatherDisplay:10.37,2013-09-14 00:54:00,
2013-09-13 20:59:00,46.5,42.2,30.12,NNE,23,0.0,0.0,85,0.00,CLR,,0.00,0.0,WeatherDisplay:10.37,2013-09-14 00:59:00,
2013-09-13 21:04:00,46.2,41.9,30.12,NNE,23,0.0,0.0,85,0.00,CLR,,0.00,0.0,WeatherDisplay:10.37,2013-09-14 01:04:00,
2013-09-13 21:09:00,45.9,41.9,30.12,NNE,23,0.0,0.0,86,0.00,CLR,,0.00,0.0,WeatherDisplay:10.37,2013-09-14 01:09:00,
2013-09-13 21:14:00,45.7,42.1,30.12,NNE,23,0.0,0.0,87,0.00,CLR,,0.00,0.0,WeatherDisplay:10.37,2013-09-14 01:14:00,
2013-09-13 21:19:00,45.5,42.2,30.13,NNE,23,0.0,0.0,88,0.00,CLR,,0.00,0.0,WeatherDisplay:10.37,2013-09-14 01:19:00,
2013-09-13 21:24:00,45.3,42.2,30.13,NNE,23,0.0,0.0,89,0.00,CLR,,0.00,0.0,WeatherDisplay:10.37,2013-09-14 01:24:00,
2013-09-13 21:29:00,45.1,42.1,30.13,NNE,23,0.0,0.0,89,0.00,CLR,,0.00,0.0,WeatherDisplay:10.37,2013-09-14 01:29:00,
2013-09-13 21:34:00,44.8,41.8,30.13,NNE,23,0.0,0.0,89,0.00,CLR,,0.00,0.0,WeatherDisplay:10.37,2013-09-14 01:34:00,
2013-09-13 21:39:00,44.5,41.5,30.13,NNE,23,0.0,0.0,89,0.00,CLR,,0.00,0.0,WeatherDisplay:10.37,2013-09-14 01:39:00,
2013-09-13 21:44:00,44.3,41.6,30.13,NNE,23,0.0,0.0,90,0.00,CLR,,0.00,0.0,WeatherDisplay:10.37,2013-09-14 01:44:00,
2013-09-13 21:49:00,44.1,41.4,30.13,NNE,23,0.0,0.0,90,0.00,CLR,,0.00,0.0,WeatherDisplay:10.37,2013-09-14 01:49:00,
2013-09-13 21:54:00,44.0,41.3,30.13,NNE,23,0.0,0.0,90,0.00,CLR,,0.00,0.0,WeatherDisplay:10.37,2013-09-14 01:54:00,
2013-09-13 21:59:00,43.7,41.0,30.13,NNE,23,0.0,0.0,90,0.00,CLR,,0.00,0.0,WeatherDisplay:10.37,2013-09-14 01:59:00,
2013-09-13 22:04:00,43.6,41.1,30.13,NNE,23,0.0,0.0,91,0.00,CLR,,0.00,0.0,WeatherDisplay:10.37,2013-09-14 02:04:00,
2013-09-13 22:09:00,43.4,40.9,30.13,NNE,23,0.0,0.0,91,0.00,CLR,,0.00,0.0,WeatherDisplay:10.37,2013-09-14 02:09:00,
2013-09-13 22:14:00,43.2,40.8,30.13,NNE,23,0.0,0.0,91,0.00,CLR,,0.00,0.0,WeatherDisplay:10.37,2013-09-14 02:14:00,
2013-09-13 22:19:00,43.1,40.9,30.13,NNE,23,0.0,0.0,92,0.00,CLR,,0.00,0.0,WeatherDisplay:10.37,2013-09-14 02:19:00,
2013-09-13 22:24:00,42.9,40.7,30.13,NNE,23,0.0,0.0,92,0.00,CLR,,0.00,0.0,WeatherDisplay:10.37,2013-09-14 02:24:00,
2013-09-13 22:29:00,42.7,40.5,30.13,NNE,23,0.0,0.0,92,0.00,CLR,,0.00,0.0,WeatherDisplay:10.37,2013-09-14 02:29:00,
2013-09-13 22:34:00,42.6,40.4,30.13,NNE,23,0.0,0.0,92,0.00,CLR,,0.00,0.0,WeatherDisplay:10.37,2013-09-14 02:34:00,
2013-09-13 22:39:00,42.4,40.2,30.13,NNE,23,0.0,0.0,92,0.00,CLR,,0.00,0.0,WeatherDisplay:10.37,2013-09-14 02:39:00,
2013-09-13 22:44:00,42.2,40.0,30.13,NNE,23,0.0,0.0,92,0.00,CLR,,0.00,0.0,WeatherDisplay:10.37,2013-09-14 02:44:00,
2013-09-13 22:49:00,42.1,39.9,30.13,NNE,23,0.0,0.0,92,0.00,CLR,,0.00,0.0,WeatherDisplay:10.37,2013-09-14 02:49:00,
2013-09-13 22:54:00,42.0,40.1,30.13,NNE,23,0.0,0.0,93,0.00,CLR,,0.00,0.0,WeatherDisplay:10.37,2013-09-14 02:54:00,
2013-09-13 22:59:00,41.8,39.6,30.13,NNE,23,0.0,0.0,92,0.00,CLR,,0.00,0.0,WeatherDisplay:10.37,2013-09-14 02:59:00,
2013-09-13 23:05:00,41.8,39.9,30.13,NNE,23,0.0,0.0,93,0.00,CLR,,0.00,0.0,WeatherDisplay:10.37,2013-09-14 03:05:00,
2013-09-13 23:10:00,41.8,39.9,30.14,NNE,23,0.0,0.0,93,0.00,CLR,,0.00,0.0,WeatherDisplay:10.37,2013-09-14 03:10:00,
2013-09-13 23:15:00,41.6,39.7,30.14,NNE,23,0.0,0.0,93,0.00,CLR,,0.00,0.0,WeatherDisplay:10.37,2013-09-14 03:15:00,
2013-09-13 23:20:00,41.4,39.5,30.14,NNE,23,0.0,0.0,93,0.00,CLR,,0.00,0.0,WeatherDisplay:10.37,2013-09-14 03:20:00,
2013-09-13 23:25:00,41.3,39.4,30.14,NNE,23,0.0,0.0,93,0.00,CLR,,0.00,0.0,WeatherDisplay:10.37,2013-09-14 03:25:00,
2013-09-13 23:30:00,41.1,39.2,30.14,NNE,23,0.0,0.0,93,0.00,CLR,,0.00,0.0,WeatherDisplay:10.37,2013-09-14 03:30:00,
2013-09-13 23:35:00,41.0,39.1,30.14,NNE,23,0.0,0.0,93,0.00,CLR,,0.00,0.0,WeatherDisplay:10.37,2013-09-14 03:35:00,
2013-09-13 23:40:00,40.9,39.3,30.14,NNE,23,0.0,0.0,94,0.00,CLR,,0.00,0.0,WeatherDisplay:10.37,2013-09-14 03:40:00,
2013-09-13 23:45:00,40.8,39.2,30.14,NNE,23,0.0,0.0,94,0.00,CLR,,0.00,0.0,WeatherDisplay:10.37,2013-09-14 03:45:00,
2013-09-13 23:50:00,40.7,39.1,30.14,NNE,23,0.0,0.0,94,0.00,CLR,,0.00,0.0,WeatherDisplay:10.37,2013-09-14 03:50:00,
2013-09-13 23:55:00,40.6,39.0,30.14,NNE,23,0.0,0.0,94,0.00,CLR,,0.00,0.0,WeatherDisplay:10.37,2013-09-14 03:55:00,